Terminal Aerodrome Forecast
Issued by NWS Springfield, MO

Home | Current Version | Previous Version | Text Only | Print | Product List | Glossary On
Versions: 1 2 3 4 5 6 7 8 9 10 11 12 13 14 15 16 17 18 19 20 21 22 23 24 25 26 27 28 29 30 31 32 33 34 35
000
FTUS43 KSGF 241700
TAFSGF
TAF
KSGF 241720Z 2418/2518 26015G25KT P6SM SCT040
      TEMPO 2419/2422 BKN035
     FM250100 29010KT P6SM SCT040
     FM250300 29007KT P6SM SKC=

USA.gov is the U.S. government's official web portal to all federal, state and local government web resources and services.